Time;durP1;ratioP1;P1;durP2;ratioP2;P2;SDS_P1;SDS_P2;PMS_P1;PMS_P2;Temp;Humidity;BMP_temperature;BMP_pressure;BME280_temperature;BME280_humidity;BME280_pressure;Samples;Min_cycle;Max_cycle;Signal;HPM_P1;HPM_P2
2023/09/21 00:00:36;;;;;;;2.63;2.10;;;19.70;99.90;;;;;;4981883;28;20200;-87
2023/09/21 00:03:02;;;;;;;5.10;2.45;;;19.70;99.90;;;;;;4982641;28;20185;-87
2023/09/21 00:05:30;;;;;;;3.60;2.22;;;19.70;99.90;;;;;;4982750;28;20184;-87
2023/09/21 00:07:57;;;;;;;4.70;2.38;;;19.70;99.90;;;;;;4999993;28;20200;-87
2023/09/21 00:10:31;;;;;;;2.78;2.30;;;19.70;99.90;;;;;;4983462;28;20197;-87
2023/09/21 00:12:59;;;;;;;4.00;2.70;;;19.60;99.90;;;;;;4982351;28;20168;-87
2023/09/21 00:15:29;;;;;;;2.15;2.03;;;19.60;99.90;;;;;;5000423;28;20223;-85
2023/09/21 00:17:58;;;;;;;3.90;2.70;;;19.70;99.90;;;;;;4983985;28;20616;-85
2023/09/21 00:20:30;;;;;;;4.57;2.53;;;19.70;99.90;;;;;;4984745;28;20207;-84
2023/09/21 00:22:56;;;;;;;3.42;2.35;;;19.70;99.90;;;;;;4985486;28;20247;-85
2023/09/21 00:25:23;;;;;;;6.15;2.60;;;19.70;99.90;;;;;;4985457;28;20259;-85
2023/09/21 00:27:49;;;;;;;2.70;2.10;;;19.70;99.90;;;;;;4985457;28;20253;-85
2023/09/21 00:30:15;;;;;;;8.63;3.15;;;19.70;99.90;;;;;;5002158;28;20188;-84
2023/09/21 00:32:41;;;;;;;5.30;2.33;;;19.70;99.90;;;;;;4985568;28;20181;-85
2023/09/21 00:35:11;;;;;;;3.60;2.20;;;19.80;99.90;;;;;;4984956;28;20267;-85
2023/09/21 00:37:37;;;;;;;8.02;2.80;;;19.80;99.90;;;;;;4985085;28;20529;-84
2023/09/21 00:40:24;;;;;;;3.78;2.55;;;19.90;99.90;;;;;;4984348;28;20196;-84
2023/09/21 00:42:53;;;;;;;3.38;2.22;;;20.10;99.90;;;;;;4984188;28;20238;-85
2023/09/21 00:45:21;;;;;;;2.72;2.47;;;20.10;99.90;;;;;;4983431;28;20177;-85
2023/09/21 00:47:51;;;;;;;3.35;2.20;;;20.20;99.90;;;;;;4983241;28;20231;-83
2023/09/21 00:50:22;;;;;;;4.03;2.30;;;20.20;99.90;;;;;;4985341;28;20197;-84
2023/09/21 00:52:51;;;;;;;4.72;2.50;;;20.20;99.90;;;;;;5000691;28;20179;-83
2023/09/21 00:55:30;;;;;;;3.42;2.33;;;20.20;99.90;;;;;;4983741;28;20204;-83
2023/09/21 00:58:03;;;;;;;4.03;2.60;;;20.20;99.90;;;;;;4985009;28;20196;-83
2023/09/21 01:00:31;;;;;;;3.75;2.40;;;20.20;99.90;;;;;;4998523;28;20196;-83
2023/09/21 01:03:07;;;;;;;2.22;2.00;;;20.30;99.90;;;;;;4997490;28;20567;-83
2023/09/21 01:05:41;;;;;;;4.88;2.80;;;20.40;99.90;;;;;;4981079;28;20173;-83
2023/09/21 01:08:10;;;;;;;4.75;2.70;;;20.40;99.90;;;;;;4981004;28;20232;-83
2023/09/21 01:10:44;;;;;;;3.17;2.35;;;20.40;99.90;;;;;;4981111;28;20211;-83
2023/09/21 01:13:12;;;;;;;2.72;2.40;;;20.40;99.90;;;;;;4981177;28;20223;-84
2023/09/21 01:15:41;;;;;;;2.92;2.60;;;20.40;99.90;;;;;;4998699;28;20658;-84
2023/09/21 01:18:08;;;;;;;3.38;2.67;;;20.40;99.90;;;;;;4981458;28;20187;-85
2023/09/21 01:20:34;;;;;;;2.88;2.55;;;20.40;99.90;;;;;;4983898;28;20332;-86
2023/09/21 01:23:18;;;;;;;3.72;2.55;;;20.40;99.90;;;;;;4984086;28;20176;-87
2023/09/21 01:25:52;;;;;;;3.47;2.40;;;20.40;99.90;;;;;;4987334;28;20172;-87
2023/09/21 01:28:22;;;;;;;4.60;2.80;;;20.40;99.90;;;;;;4982858;28;20621;-85
2023/09/21 01:30:49;;;;;;;2.65;2.22;;;20.30;99.90;;;;;;4982813;28;20285;-85
2023/09/21 01:33:18;;;;;;;2.95;2.50;;;20.30;99.90;;;;;;5000956;28;20156;-85
2023/09/21 01:35:45;;;;;;;5.03;2.45;;;20.30;99.90;;;;;;4983064;28;20180;-85
2023/09/21 01:38:14;;;;;;;2.85;2.10;;;20.30;99.90;;;;;;4982915;28;20191;-85
2023/09/21 01:40:41;;;;;;;3.60;2.30;;;20.30;99.90;;;;;;4981877;28;20205;-85
2023/09/21 01:43:20;;;;;;;2.75;2.33;;;20.30;99.90;;;;;;4982042;28;20227;-85
2023/09/21 01:45:48;;;;;;;5.75;2.55;;;20.30;99.90;;;;;;4982333;28;20169;-85
2023/09/21 01:48:15;;;;;;;5.10;2.65;;;20.30;99.90;;;;;;4982218;28;20258;-85
2023/09/21 01:50:46;;;;;;;3.17;2.22;;;20.30;99.90;;;;;;4985710;28;20197;-84
2023/09/21 01:53:19;;;;;;;4.57;2.55;;;20.30;99.90;;;;;;4986460;28;20643;-85
2023/09/21 01:55:47;;;;;;;3.92;2.63;;;20.30;99.90;;;;;;4984981;28;20271;-85
2023/09/21 01:58:14;;;;;;;3.20;2.10;;;20.30;99.90;;;;;;4987224;28;20188;-85
2023/09/21 02:00:42;;;;;;;7.32;2.63;;;20.30;99.90;;;;;;4987978;28;20267;-85
2023/09/21 02:03:09;;;;;;;4.78;2.35;;;20.30;99.90;;;;;;4988980;28;20184;-84
2023/09/21 02:05:41;;;;;;;3.33;2.10;;;20.30;99.90;;;;;;4990438;28;20188;-84
2023/09/21 02:08:09;;;;;;;3.85;2.25;;;20.20;99.90;;;;;;4993560;28;20215;-84
2023/09/21 02:10:36;;;;;;;3.55;2.38;;;20.20;99.90;;;;;;4992402;28;20212;-84
2023/09/21 02:13:05;;;;;;;3.47;2.20;;;20.20;99.90;;;;;;4985471;28;20267;-84
2023/09/21 02:15:34;;;;;;;3.22;2.20;;;20.20;99.90;;;;;;4984185;28;20234;-85
2023/09/21 02:18:02;;;;;;;3.30;2.20;;;20.10;99.90;;;;;;4985479;28;20180;-84
2023/09/21 02:20:32;;;;;;;3.88;2.35;;;20.10;99.90;;;;;;4985040;28;20235;-84
2023/09/21 02:23:00;;;;;;;3.13;2.42;;;20.00;99.90;;;;;;4985121;28;20192;-85
2023/09/21 02:25:27;;;;;;;5.28;2.60;;;19.90;99.90;;;;;;4985047;28;20185;-84
2023/09/21 02:27:53;;;;;;;5.00;2.58;;;19.90;99.90;;;;;;4985489;28;20647;-84
2023/09/21 02:30:21;;;;;;;4.40;2.45;;;19.80;99.90;;;;;;4985914;28;20199;-85
2023/09/21 02:32:53;;;;;;;3.53;2.30;;;19.80;99.90;;;;;;4985571;28;20181;-84
2023/09/21 02:35:26;;;;;;;4.32;2.70;;;19.70;99.90;;;;;;4986456;28;20691;-84
2023/09/21 02:37:52;;;;;;;2.47;2.20;;;19.60;99.90;;;;;;5000901;28;20172;-84
2023/09/21 02:40:20;;;;;;;3.90;2.75;;;19.60;99.90;;;;;;4978419;28;20563;-84
2023/09/21 02:42:48;;;;;;;3.17;2.17;;;19.60;99.90;;;;;;4985629;28;20679;-85
2023/09/21 02:45:15;;;;;;;3.72;2.40;;;19.60;99.90;;;;;;5003314;28;20187;-84
2023/09/21 02:47:44;;;;;;;5.97;2.50;;;19.60;99.90;;;;;;4985199;28;20176;-84
2023/09/21 02:50:15;;;;;;;6.07;2.70;;;19.50;99.90;;;;;;4984823;28;20280;-84
2023/09/21 02:52:46;;;;;;;2.75;2.20;;;19.50;99.90;;;;;;4985073;28;20233;-85
2023/09/21 02:55:20;;;;;;;6.15;2.63;;;19.50;99.90;;;;;;4984782;28;20180;-86
2023/09/21 02:58:06;;;;;;;3.25;2.60;;;19.40;99.90;;;;;;4984503;28;20223;-86
2023/09/21 03:00:39;;;;;;;3.72;2.20;;;19.50;99.90;;;;;;4984999;28;20196;-86
2023/09/21 03:03:06;;;;;;;3.03;2.40;;;19.50;99.90;;;;;;4984732;28;20226;-87
2023/09/21 03:05:33;;;;;;;3.83;2.42;;;19.40;99.90;;;;;;4985551;28;20184;-86
2023/09/21 03:08:13;;;;;;;3.65;2.30;;;19.40;99.90;;;;;;4985018;28;20204;-86
2023/09/21 03:10:50;;;;;;;4.57;2.10;;;19.40;99.90;;;;;;5002596;28;20689;-87
2023/09/21 03:13:18;;;;;;;4.63;2.53;;;19.30;99.90;;;;;;4985612;28;20191;-84
2023/09/21 03:15:58;;;;;;;3.50;2.10;;;19.30;99.90;;;;;;4986117;28;20199;-84
2023/09/21 03:18:25;;;;;;;4.07;2.42;;;19.30;99.90;;;;;;4986861;28;20627;-84
2023/09/21 03:20:52;;;;;;;3.78;2.40;;;19.20;99.90;;;;;;4986605;28;20228;-84
2023/09/21 03:23:18;;;;;;;5.28;2.33;;;19.20;99.90;;;;;;5003131;28;20172;-85
2023/09/21 03:25:45;;;;;;;3.42;2.40;;;19.10;99.90;;;;;;4985725;28;20639;-85
2023/09/21 03:28:13;;;;;;;4.40;2.53;;;19.10;99.90;;;;;;4986015;28;20205;-84
2023/09/21 03:31:05;;;;;;;4.68;2.40;;;19.10;99.90;;;;;;4986725;28;20204;-84
2023/09/21 03:33:31;;;;;;;2.78;2.17;;;19.10;99.90;;;;;;4999882;28;20195;-84
2023/09/21 03:35:58;;;;;;;4.10;2.30;;;19.10;99.90;;;;;;4985365;28;20204;-84
2023/09/21 03:38:24;;;;;;;3.55;2.40;;;19.10;99.90;;;;;;5003240;28;20262;-85
2023/09/21 03:40:50;;;;;;;3.33;2.30;;;19.00;99.90;;;;;;4985736;28;20234;-84
2023/09/21 03:43:18;;;;;;;4.15;2.28;;;19.00;99.90;;;;;;4985847;28;20187;-84
2023/09/21 03:45:44;;;;;;;3.63;2.55;;;19.10;99.90;;;;;;4985541;28;20180;-84
2023/09/21 03:48:12;;;;;;;4.25;2.70;;;19.00;99.90;;;;;;4984943;28;20218;-84
2023/09/21 03:50:39;;;;;;;4.43;2.55;;;19.00;99.90;;;;;;4985595;28;20562;-85
2023/09/21 03:53:08;;;;;;;3.30;2.50;;;19.00;99.90;;;;;;4985595;28;20263;-84
2023/09/21 03:55:35;;;;;;;2.58;2.38;;;19.00;99.90;;;;;;4985781;28;20266;-85
2023/09/21 03:58:02;;;;;;;3.88;2.50;;;19.00;99.90;;;;;;4985685;28;20191;-84
2023/09/21 04:03:02;;;;;;;4.00;2.45;;;19.10;99.90;;;;;;5003605;28;20674;-84
2023/09/21 04:05:30;;;;;;;3.58;2.45;;;19.10;99.90;;;;;;4985153;28;20698;-84
2023/09/21 04:07:56;;;;;;;3.13;2.38;;;19.20;99.90;;;;;;5002156;28;20565;-84
2023/09/21 04:10:22;;;;;;;4.10;2.65;;;19.20;99.90;;;;;;4985639;28;20224;-85
2023/09/21 04:12:50;;;;;;;2.88;2.42;;;19.20;99.90;;;;;;4985823;28;20177;-86
2023/09/21 04:15:17;;;;;;;5.18;2.33;;;19.20;99.90;;;;;;4986374;28;20263;-86
2023/09/21 04:17:43;;;;;;;4.95;2.45;;;19.20;99.90;;;;;;4986310;28;20181;-84
2023/09/21 04:20:13;;;;;;;3.97;2.30;;;19.30;99.90;;;;;;4986137;28;20584;-84
2023/09/21 04:22:43;;;;;;;4.72;2.22;;;19.30;99.90;;;;;;4986376;28;20180;-84
2023/09/21 04:25:11;;;;;;;2.95;2.35;;;19.30;99.90;;;;;;4983807;28;20234;-84
2023/09/21 04:27:44;;;;;;;3.92;2.60;;;19.30;99.90;;;;;;4986549;28;20183;-84
2023/09/21 04:30:14;;;;;;;3.80;2.50;;;19.30;99.90;;;;;;4986344;28;20200;-84
2023/09/21 04:32:41;;;;;;;4.35;2.60;;;19.30;99.90;;;;;;4984510;28;20177;-86
2023/09/21 04:35:07;;;;;;;5.43;2.50;;;19.30;99.90;;;;;;4983560;28;20187;-86
2023/09/21 04:37:39;;;;;;;4.20;2.50;;;19.30;99.90;;;;;;4983849;28;20601;-87
2023/09/21 04:40:11;;;;;;;4.88;2.72;;;19.30;99.90;;;;;;4983077;28;20200;-86
2023/09/21 04:42:38;;;;;;;4.60;2.60;;;19.40;99.90;;;;;;4983262;28;20175;-86
2023/09/21 04:45:16;;;;;;;3.70;2.75;;;19.40;99.90;;;;;;4986693;28;20188;-85
2023/09/21 04:47:44;;;;;;;3.38;2.45;;;19.30;99.90;;;;;;4983966;28;20176;-86
2023/09/21 04:50:11;;;;;;;4.82;2.80;;;19.30;99.90;;;;;;4982895;28;20259;-87
2023/09/21 04:52:37;;;;;;;5.68;2.50;;;19.30;99.90;;;;;;4982976;28;20184;-86
2023/09/21 04:55:04;;;;;;;3.60;2.53;;;19.20;99.90;;;;;;4983452;28;20187;-86
2023/09/21 04:57:31;;;;;;;2.88;2.30;;;19.20;99.90;;;;;;4983788;28;20188;-84
2023/09/21 05:00:00;;;;;;;5.78;2.60;;;19.20;99.90;;;;;;5003172;28;20200;-83
2023/09/21 05:02:26;;;;;;;5.03;2.80;;;19.20;99.90;;;;;;4983693;28;20211;-83
2023/09/21 05:04:52;;;;;;;3.80;2.50;;;19.20;99.90;;;;;;4981603;28;20651;-84
2023/09/21 05:07:18;;;;;;;3.70;2.75;;;19.10;99.90;;;;;;4981206;28;20241;-84
2023/09/21 05:09:45;;;;;;;3.42;2.75;;;19.10;99.90;;;;;;4997861;28;20287;-84
2023/09/21 05:12:16;;;;;;;4.95;2.45;;;19.10;99.90;;;;;;4981446;28;20176;-84
2023/09/21 05:14:42;;;;;;;4.78;2.90;;;19.10;99.90;;;;;;4978372;28;20169;-84
2023/09/21 05:17:08;;;;;;;2.47;2.25;;;19.20;99.90;;;;;;4978999;28;20171;-85
2023/09/21 05:19:33;;;;;;;5.68;2.50;;;19.20;99.90;;;;;;4995732;28;20180;-84
2023/09/21 05:22:04;;;;;;;3.35;2.35;;;19.20;99.90;;;;;;4979618;28;20176;-84
2023/09/21 05:24:32;;;;;;;4.22;2.45;;;19.10;99.90;;;;;;4979460;28;20219;-84
2023/09/21 05:26:59;;;;;;;2.75;2.47;;;19.10;99.90;;;;;;4996819;28;20183;-85
2023/09/21 05:29:25;;;;;;;2.60;2.38;;;19.00;99.90;;;;;;4978571;28;20220;-85
2023/09/21 05:31:50;;;;;;;5.53;2.60;;;19.00;99.90;;;;;;4979182;28;20186;-85
2023/09/21 05:34:17;;;;;;;4.07;2.60;;;19.00;99.90;;;;;;4988075;28;20240;-85
2023/09/21 05:36:47;;;;;;;3.92;2.35;;;19.00;99.90;;;;;;4983332;28;20180;-85
2023/09/21 05:39:16;;;;;;;2.95;2.58;;;19.00;99.90;;;;;;4982526;28;20168;-86
2023/09/21 05:41:46;;;;;;;4.68;2.30;;;19.00;99.90;;;;;;4981077;28;20197;-85
2023/09/21 05:44:12;;;;;;;3.85;2.33;;;19.00;99.90;;;;;;4980595;28;20552;-86
2023/09/21 05:46:38;;;;;;;3.85;2.60;;;19.00;99.90;;;;;;4980129;28;20192;-86
2023/09/21 05:49:05;;;;;;;5.03;2.50;;;19.00;99.90;;;;;;4997804;28;20192;-86
2023/09/21 05:51:32;;;;;;;4.15;2.60;;;19.10;99.90;;;;;;4978961;28;20234;-86
2023/09/21 05:53:58;;;;;;;5.43;2.60;;;19.00;99.90;;;;;;4981550;28;20190;-85
2023/09/21 05:56:24;;;;;;;4.78;2.38;;;19.10;99.90;;;;;;4980580;28;20263;-85
2023/09/21 05:58:51;;;;;;;4.03;2.63;;;19.10;99.90;;;;;;4980677;28;20176;-86
2023/09/21 06:01:17;;;;;;;4.05;2.30;;;19.00;99.90;;;;;;4997711;28;20292;-85
2023/09/21 06:03:42;;;;;;;4.50;2.50;;;19.00;99.90;;;;;;5003010;28;20195;-86
2023/09/21 06:06:09;;;;;;;3.90;2.70;;;19.10;99.90;;;;;;4984496;28;20206;-86
2023/09/21 06:08:38;;;;;;;4.82;2.50;;;19.10;99.90;;;;;;4996396;28;20662;-86
2023/09/21 06:11:04;;;;;;;6.03;2.83;;;19.10;99.90;;;;;;4978208;28;20200;-85
2023/09/21 06:13:31;;;;;;;4.32;2.45;;;19.20;99.90;;;;;;4977737;28;20661;-85
2023/09/21 06:15:58;;;;;;;6.82;3.00;;;19.20;99.90;;;;;;4995223;28;20202;-85
2023/09/21 06:18:25;;;;;;;4.97;2.42;;;19.20;99.90;;;;;;4977861;28;20176;-86
2023/09/21 06:20:53;;;;;;;3.53;2.60;;;19.30;99.90;;;;;;4978789;28;20299;-85
2023/09/21 06:23:18;;;;;;;4.95;2.80;;;19.40;99.90;;;;;;4978472;28;20184;-86
2023/09/21 06:25:46;;;;;;;4.68;2.70;;;19.40;99.90;;;;;;4978848;28;20184;-85
2023/09/21 06:28:11;;;;;;;4.85;2.65;;;19.40;99.90;;;;;;4995954;28;20218;-86
2023/09/21 06:30:37;;;;;;;5.00;2.78;;;19.40;99.90;;;;;;4979402;28;20196;-85
2023/09/21 06:33:04;;;;;;;5.00;2.97;;;19.50;99.90;;;;;;4981052;28;20198;-85
2023/09/21 06:35:29;;;;;;;3.35;2.50;;;19.50;99.90;;;;;;4981136;28;20176;-85
2023/09/21 06:37:55;;;;;;;3.60;2.50;;;19.50;99.90;;;;;;4998798;28;20569;-85
2023/09/21 06:40:23;;;;;;;5.68;3.00;;;19.60;99.90;;;;;;4980983;28;20284;-85
2023/09/21 06:42:49;;;;;;;8.55;2.80;;;19.70;99.90;;;;;;4981883;28;20717;-85
2023/09/21 06:45:15;;;;;;;5.50;2.55;;;19.70;99.90;;;;;;4982471;28;20172;-84
2023/09/21 06:47:42;;;;;;;6.72;2.90;;;19.80;99.90;;;;;;4998020;28;20207;-84
2023/09/21 06:50:10;;;;;;;4.25;2.38;;;19.90;99.90;;;;;;4982141;28;20288;-84
2023/09/21 06:52:37;;;;;;;4.13;2.85;;;19.90;99.90;;;;;;4981077;28;20180;-84
2023/09/21 06:55:05;;;;;;;5.95;2.70;;;19.90;99.90;;;;;;4998444;28;20179;-85
2023/09/21 06:57:34;;;;;;;4.43;2.70;;;20.00;99.90;;;;;;4985217;28;20553;-84
2023/09/21 07:00:08;;;;;;;5.32;2.83;;;20.10;99.90;;;;;;4979648;28;20254;-84
2023/09/21 07:02:33;;;;;;;6.07;2.97;;;20.10;99.90;;;;;;5000945;28;20174;-84
2023/09/21 07:04:59;;;;;;;3.65;2.30;;;20.10;99.90;;;;;;4984984;28;20643;-84
2023/09/21 07:07:25;;;;;;;3.78;2.60;;;20.30;99.90;;;;;;4984274;28;20185;-84
2023/09/21 07:09:53;;;;;;;6.88;2.90;;;20.40;99.90;;;;;;4988095;28;20217;-84
2023/09/21 07:12:19;;;;;;;4.50;2.30;;;20.30;99.90;;;;;;4983231;28;20184;-84
2023/09/21 07:14:45;;;;;;;7.18;3.13;;;20.40;99.90;;;;;;4983008;28;20192;-84
2023/09/21 07:17:11;;;;;;;5.32;2.70;;;20.30;99.90;;;;;;4985220;28;20662;-84
2023/09/21 07:19:37;;;;;;;5.82;2.60;;;20.30;99.90;;;;;;4999473;28;20172;-84
2023/09/21 07:22:03;;;;;;;4.63;2.70;;;20.40;99.90;;;;;;4981707;28;20180;-84
2023/09/21 07:24:32;;;;;;;4.53;2.85;;;20.50;99.90;;;;;;4982131;28;20191;-84
2023/09/21 07:26:58;;;;;;;6.68;2.70;;;20.80;99.90;;;;;;4981893;28;20193;-84
2023/09/21 07:29:24;;;;;;;5.18;2.42;;;20.90;99.90;;;;;;4998876;28;20291;-84
2023/09/21 07:31:50;;;;;;;3.92;2.50;;;21.20;99.90;;;;;;4981702;28;20180;-84
2023/09/21 07:34:16;;;;;;;3.80;2.75;;;21.40;99.90;;;;;;4981501;28;20207;-84
2023/09/21 07:36:46;;;;;;;4.35;2.75;;;21.50;99.90;;;;;;4981770;28;20180;-84
2023/09/21 07:39:13;;;;;;;5.55;2.65;;;21.60;99.90;;;;;;4982167;28;20200;-84
2023/09/21 07:41:42;;;;;;;6.60;2.97;;;21.60;99.90;;;;;;4981471;28;20196;-84
2023/09/21 07:44:08;;;;;;;5.38;2.80;;;21.70;99.90;;;;;;4980660;28;20181;-84
2023/09/21 07:46:38;;;;;;;2.97;2.38;;;21.80;99.90;;;;;;4981203;28;20180;-84
2023/09/21 07:49:07;;;;;;;4.80;2.60;;;21.70;99.90;;;;;;4981451;28;20208;-84
2023/09/21 07:51:33;;;;;;;5.47;2.63;;;21.80;99.90;;;;;;4981174;28;20205;-84
2023/09/21 07:54:00;;;;;;;5.93;2.92;;;22.00;99.90;;;;;;4981494;28;20172;-84
2023/09/21 07:56:27;;;;;;;4.22;2.63;;;21.80;99.90;;;;;;4981202;28;20212;-84
2023/09/21 07:58:54;;;;;;;3.55;2.47;;;21.70;99.90;;;;;;4981007;28;20271;-84
2023/09/21 08:01:19;;;;;;;4.63;2.92;;;21.50;99.90;;;;;;4997103;28;20207;-84
2023/09/21 08:03:46;;;;;;;3.60;2.25;;;21.40;99.90;;;;;;4998169;28;20578;-84
2023/09/21 08:06:12;;;;;;;3.88;2.42;;;21.20;99.90;;;;;;4981238;28;20651;-84
2023/09/21 08:08:38;;;;;;;6.32;2.85;;;21.00;99.90;;;;;;4981373;28;20211;-84
2023/09/21 08:11:06;;;;;;;8.07;3.00;;;20.90;99.90;;;;;;4997649;28;20254;-84
2023/09/21 08:13:33;;;;;;;4.03;2.60;;;21.10;99.90;;;;;;4981243;28;20647;-84
2023/09/21 08:16:01;;;;;;;4.88;2.80;;;21.40;99.90;;;;;;4998339;28;20255;-84
2023/09/21 08:18:26;;;;;;;4.40;2.47;;;21.70;99.90;;;;;;4998277;28;20330;-84
2023/09/21 08:20:52;;;;;;;5.10;2.50;;;21.80;99.90;;;;;;4980064;28;20682;-84
2023/09/21 08:23:18;;;;;;;3.22;2.40;;;21.70;99.90;;;;;;4972528;28;20208;-84
2023/09/21 08:25:44;;;;;;;5.18;2.67;;;21.50;99.90;;;;;;4980985;28;20187;-84
2023/09/21 08:28:10;;;;;;;2.88;2.55;;;21.40;99.90;;;;;;4981848;28;20208;-84
2023/09/21 08:30:36;;;;;;;3.53;2.50;;;21.30;99.90;;;;;;4998390;28;20655;-84
2023/09/21 08:33:02;;;;;;;5.78;2.75;;;21.20;99.90;;;;;;4998452;28;20181;-84
2023/09/21 08:35:31;;;;;;;3.08;2.47;;;21.40;99.90;;;;;;4981298;28;20263;-84
2023/09/21 08:37:56;;;;;;;2.92;2.65;;;21.40;99.90;;;;;;4998719;28;20168;-84
2023/09/21 08:40:23;;;;;;;3.08;2.40;;;21.50;99.90;;;;;;4980889;28;20247;-85
2023/09/21 08:42:52;;;;;;;4.30;2.67;;;21.50;99.90;;;;;;4981084;28;20246;-85
2023/09/21 08:45:21;;;;;;;3.47;2.40;;;21.40;99.90;;;;;;4970793;28;20239;-84
2023/09/21 08:47:48;;;;;;;4.57;2.80;;;21.40;99.90;;;;;;4995298;28;20173;-84
2023/09/21 08:50:13;;;;;;;6.93;2.60;;;21.40;99.90;;;;;;4981858;28;20219;-84
2023/09/21 08:52:48;;;;;;;5.63;2.72;;;21.30;99.90;;;;;;4982605;28;20177;-84
2023/09/21 08:55:14;;;;;;;10.57;3.05;;;21.30;99.90;;;;;;4982522;28;20176;-84
2023/09/21 08:57:41;;;;;;;4.40;2.42;;;21.20;99.90;;;;;;4998483;28;20185;-84
2023/09/21 09:00:10;;;;;;;5.07;2.63;;;21.30;99.90;;;;;;4982132;28;20196;-84
2023/09/21 09:02:37;;;;;;;4.05;2.50;;;21.50;99.90;;;;;;4981865;28;20212;-84
2023/09/21 09:05:09;;;;;;;3.15;2.35;;;21.60;99.90;;;;;;4999549;28;20179;-90
2023/09/21 09:07:39;;;;;;;4.93;2.63;;;21.70;99.90;;;;;;4981906;28;20549;-84
2023/09/21 09:10:10;;;;;;;5.85;2.70;;;21.70;99.90;;;;;;4981338;28;20212;-84
2023/09/21 09:12:36;;;;;;;4.22;2.60;;;21.90;99.90;;;;;;4981870;28;20294;-84
2023/09/21 09:15:03;;;;;;;8.38;2.85;;;22.20;99.90;;;;;;4981925;28;20655;-84
2023/09/21 09:17:35;;;;;;;5.80;2.50;;;22.50;99.90;;;;;;4980043;28;20269;-85
2023/09/21 09:20:03;;;;;;;4.68;2.40;;;22.70;99.90;;;;;;4979743;28;20204;-85
2023/09/21 09:22:34;;;;;;;3.13;2.50;;;22.80;99.90;;;;;;4979155;28;20586;-85
2023/09/21 09:25:09;;;;;;;4.38;2.20;;;22.80;99.90;;;;;;4979339;28;20180;-85
2023/09/21 09:27:35;;;;;;;4.88;2.30;;;22.70;99.90;;;;;;4979381;28;20187;-85
2023/09/21 09:30:04;;;;;;;3.67;2.40;;;22.50;99.90;;;;;;4995020;28;20216;-85
2023/09/21 09:32:40;;;;;;;4.28;2.13;;;22.30;99.90;;;;;;4981194;28;20183;-85
2023/09/21 09:35:11;;;;;;;3.50;2.10;;;22.20;99.90;;;;;;4979983;28;20164;-85
2023/09/21 09:37:37;;;;;;;3.45;2.20;;;22.30;99.90;;;;;;4980246;28;20176;-85
2023/09/21 09:40:24;;;;;;;5.85;2.50;;;22.40;99.90;;;;;;4979351;28;20210;-85
2023/09/21 09:42:51;;;;;;;5.57;2.85;;;22.40;99.90;;;;;;4980138;28;20178;-85
2023/09/21 09:45:30;;;;;;;6.07;2.35;;;22.50;99.90;;;;;;4981074;28;20187;-85
2023/09/21 09:47:57;;;;;;;4.85;2.28;;;22.70;99.90;;;;;;4980622;28;20673;-85
2023/09/21 09:50:25;;;;;;;4.38;2.20;;;22.80;99.90;;;;;;4980327;28;20196;-85
2023/09/21 09:53:01;;;;;;;3.92;2.20;;;22.90;99.90;;;;;;4997178;28;20222;-85
2023/09/21 09:55:31;;;;;;;6.32;2.70;;;23.00;99.90;;;;;;4997357;28;20189;-85
2023/09/21 09:57:58;;;;;;;5.63;2.20;;;23.00;99.90;;;;;;4978816;28;20164;-85
2023/09/21 10:00:27;;;;;;;5.63;2.20;;;23.00;99.90;;;;;;4978772;28;20213;-85
2023/09/21 10:02:55;;;;;;;4.53;2.22;;;23.10;99.90;;;;;;4979211;28;20168;-84
2023/09/21 10:05:22;;;;;;;4.47;2.45;;;23.10;99.90;;;;;;4997585;28;20169;-85
2023/09/21 10:07:53;;;;;;;3.72;2.22;;;23.20;99.90;;;;;;4979031;28;20177;-85
2023/09/21 10:10:21;;;;;;;5.15;2.40;;;23.20;99.90;;;;;;4981552;28;20666;-84
2023/09/21 10:12:52;;;;;;;4.25;2.50;;;23.10;99.90;;;;;;4979345;28;20204;-85
2023/09/21 10:15:24;;;;;;;5.28;2.67;;;23.20;99.90;;;;;;4995192;28;20196;-85
2023/09/21 10:17:54;;;;;;;4.57;2.40;;;23.20;99.90;;;;;;4995761;28;20655;-85
2023/09/21 10:20:32;;;;;;;4.15;2.47;;;23.20;99.90;;;;;;4978571;28;20252;-85
2023/09/21 10:23:01;;;;;;;4.28;2.55;;;23.10;99.90;;;;;;4978161;28;20176;-85
2023/09/21 10:25:58;;;;;;;2.92;2.20;;;22.90;99.90;;;;;;4978346;28;20172;-85
2023/09/21 10:28:31;;;;;;;4.55;2.25;;;22.60;99.90;;;;;;4980404;28;20215;-85
2023/09/21 10:31:18;;;;;;;4.20;2.63;;;22.50;99.90;;;;;;4977932;28;20679;-85
2023/09/21 10:33:51;;;;;;;2.83;2.45;;;22.30;99.90;;;;;;4979473;28;20189;-84
2023/09/21 10:36:30;;;;;;;4.07;2.35;;;22.10;99.90;;;;;;4982726;28;20248;-84
2023/09/21 10:39:11;;;;;;;5.97;2.80;;;22.00;99.90;;;;;;4983051;28;20184;-85
2023/09/21 10:41:40;;;;;;;4.10;2.15;;;22.10;99.90;;;;;;4983394;28;20207;-85
2023/09/21 10:44:06;;;;;;;4.32;2.83;;;22.00;99.90;;;;;;4983992;28;20547;-85
2023/09/21 10:46:39;;;;;;;5.65;2.30;;;22.00;99.90;;;;;;4983974;28;20180;-84
2023/09/21 10:49:08;;;;;;;4.25;2.05;;;22.00;99.90;;;;;;4983609;28;20208;-84
2023/09/21 10:51:39;;;;;;;5.82;2.33;;;22.00;99.90;;;;;;4999314;28;20689;-85
2023/09/21 10:54:10;;;;;;;4.53;2.78;;;22.00;99.90;;;;;;4983107;28;20184;-85
2023/09/21 10:56:41;;;;;;;3.20;2.30;;;22.00;99.90;;;;;;4983334;28;20188;-85
2023/09/21 10:59:08;;;;;;;3.95;2.60;;;22.10;99.90;;;;;;4981812;28;20238;-84
2023/09/21 11:01:35;;;;;;;4.22;3.00;;;22.20;99.90;;;;;;4982399;28;20694;-84
2023/09/21 11:04:02;;;;;;;5.13;2.67;;;22.20;99.90;;;;;;4998495;28;20280;-84
2023/09/21 11:06:28;;;;;;;3.85;2.70;;;22.30;99.90;;;;;;4982003;28;20249;-85
2023/09/21 11:08:55;;;;;;;4.00;2.53;;;22.40;99.90;;;;;;4982434;28;20208;-85
2023/09/21 11:11:22;;;;;;;4.80;2.63;;;22.40;99.90;;;;;;4981682;28;20287;-85
2023/09/21 11:13:51;;;;;;;4.78;2.60;;;22.30;99.90;;;;;;4999188;28;20223;-85
2023/09/21 11:16:18;;;;;;;4.65;2.53;;;22.30;99.90;;;;;;4997504;28;20251;-85
2023/09/21 11:18:44;;;;;;;8.52;3.08;;;22.30;99.90;;;;;;4981166;28;20529;-85
2023/09/21 11:21:11;;;;;;;4.35;2.90;;;22.20;99.90;;;;;;4980716;28;20231;-85
2023/09/21 11:23:42;;;;;;;3.05;2.78;;;22.20;99.90;;;;;;4999206;28;20176;-85
2023/09/21 11:26:14;;;;;;;3.40;2.63;;;22.40;99.90;;;;;;4981779;28;20224;-85
2023/09/21 11:28:40;;;;;;;4.28;2.70;;;22.50;99.90;;;;;;4981269;28;20291;-85
2023/09/21 11:31:08;;;;;;;5.15;2.35;;;22.70;99.90;;;;;;4998496;28;20196;-85
2023/09/21 11:33:35;;;;;;;4.40;2.50;;;22.70;99.90;;;;;;4981435;28;20183;-84
2023/09/21 11:36:04;;;;;;;4.88;2.30;;;22.70;99.90;;;;;;4998599;28;20178;-84
2023/09/21 11:38:33;;;;;;;4.75;2.60;;;22.90;99.90;;;;;;4981419;28;20645;-85
2023/09/21 11:40:59;;;;;;;4.05;2.40;;;23.00;99.90;;;;;;4981170;28;20674;-84
2023/09/21 11:43:25;;;;;;;4.40;2.53;;;23.10;99.90;;;;;;4980686;28;20256;-84
2023/09/21 11:45:52;;;;;;;6.25;2.38;;;23.30;99.90;;;;;;4980287;28;20670;-84
2023/09/21 11:48:21;;;;;;;2.97;2.17;;;23.30;99.90;;;;;;4981030;28;20208;-84
2023/09/21 11:50:48;;;;;;;5.70;2.60;;;23.30;99.90;;;;;;4981133;28;20192;-84
2023/09/21 11:53:14;;;;;;;4.05;2.28;;;23.20;99.90;;;;;;4980780;28;20267;-84
2023/09/21 11:55:40;;;;;;;3.63;2.15;;;23.10;99.90;;;;;;4997779;28;20547;-84
2023/09/21 11:58:11;;;;;;;5.63;2.63;;;23.10;99.90;;;;;;4980159;28;20275;-85
2023/09/21 12:00:44;;;;;;;3.55;2.50;;;23.10;99.90;;;;;;4980228;28;20236;-85
2023/09/21 12:03:17;;;;;;;3.33;2.40;;;23.20;99.90;;;;;;4980069;28;20185;-85
2023/09/21 12:05:44;;;;;;;3.92;2.53;;;23.50;99.90;;;;;;4980741;28;20172;-85
2023/09/21 12:08:14;;;;;;;5.78;2.10;;;23.80;99.90;;;;;;4980783;28;20603;-85
2023/09/21 12:10:47;;;;;;;4.45;2.28;;;24.00;99.90;;;;;;4980897;28;20730;-85
2023/09/21 12:13:16;;;;;;;2.58;2.20;;;24.00;99.90;;;;;;4980706;28;20185;-85
2023/09/21 12:15:42;;;;;;;5.88;2.25;;;23.70;99.90;;;;;;4980094;28;20196;-85
2023/09/21 12:18:12;;;;;;;4.13;2.05;;;23.50;99.90;;;;;;4980221;28;20176;-85
2023/09/21 12:20:44;;;;;;;4.50;2.20;;;23.20;99.90;;;;;;4980556;28;20570;-85
2023/09/21 12:23:12;;;;;;;3.88;2.33;;;23.10;99.90;;;;;;4996623;28;20670;-85
2023/09/21 12:25:41;;;;;;;4.28;2.30;;;23.10;99.90;;;;;;4980424;28;20185;-85
2023/09/21 12:28:09;;;;;;;2.78;2.15;;;23.10;99.90;;;;;;4980220;28;20176;-85
2023/09/21 12:30:37;;;;;;;6.95;2.30;;;23.10;99.90;;;;;;4981129;28;20204;-85
2023/09/21 12:33:03;;;;;;;3.58;2.20;;;23.00;99.90;;;;;;4980902;28;20180;-85
2023/09/21 12:35:30;;;;;;;4.43;2.63;;;22.90;99.90;;;;;;4980478;28;20203;-85
2023/09/21 12:37:56;;;;;;;3.63;2.08;;;22.70;99.90;;;;;;4997530;28;20707;-85
2023/09/21 12:40:22;;;;;;;5.40;2.30;;;22.60;99.90;;;;;;4980490;28;20204;-85
2023/09/21 12:42:47;;;;;;;3.40;2.58;;;22.50;99.90;;;;;;4980616;28;20181;-85
2023/09/21 12:45:17;;;;;;;4.78;2.33;;;22.50;99.90;;;;;;4981288;28;20189;-85
2023/09/21 12:47:44;;;;;;;3.97;1.98;;;22.40;99.90;;;;;;4998144;28;20179;-85
2023/09/21 12:50:12;;;;;;;3.13;1.98;;;22.40;99.90;;;;;;4980014;28;20220;-85
2023/09/21 12:52:42;;;;;;;3.80;2.38;;;22.30;99.90;;;;;;4980397;28;20180;-85
2023/09/21 12:55:09;;;;;;;4.85;2.20;;;22.30;99.90;;;;;;4980374;28;20203;-85
2023/09/21 12:57:36;;;;;;;2.63;2.05;;;22.30;99.90;;;;;;4997782;28;20173;-85